Flight Track Log - Related Links

Times and Time Zones

All times are in EDT time to prevent confusion due to time zone crossing. See the N860BA flight status page for this flight to view local times or setup timezone preferences in your user account.

Time Position Orientation Groundspeed Altitude Reporting Facility
EDT Latitude Longitude Course Direction KTS MPH feet Rate Location/Type
Mon 06:57:26 PM 26.0750 -80.1319 86° East 165 190 500  Level Miami Center
Mon 06:58:21 PM 26.0783 -80.0719 86° East 230 265 2,300 2,276 Climbing Miami Center
Mon 06:59:22 PM 26.1128 -80.0289 48° Northeast 230 265 4,900 1,257 Climbing Miami Center
Mon 07:01:08 PM 26.2347 -80.0878 337° Northwest 326 375 5,800 1,229 Climbing Miami Center
Mon 07:02:08 PM 26.3003 -80.1522 319° Northwest 295 339 8,300 2,500 Climbing Miami Center
Mon 07:03:08 PM 26.3656 -80.2142 320° Northwest 300 345 10,800 2,250 Climbing Miami Center
Mon 07:04:08 PM 26.4392 -80.2789 322° Northwest 321 369 12,800 1,550 Climbing Miami Center
Mon 07:05:08 PM 26.5128 -80.3483 320° Northwest 341 392 13,900 1,700 Climbing Miami Center
Mon 07:06:08 PM 26.5886 -80.4158 321° Northwest 348 400 16,200 1,850 Climbing Miami Center
Mon 07:07:08 PM 26.6792 -80.4603 336° Northwest 343 395 17,600 1,550 Climbing Miami Center
Mon 07:08:08 PM 26.7786 -80.4983 341° North 365 420 19,300 1,450 Climbing Miami Center
Mon 07:09:08 PM 26.8675 -80.5336 341° North 371 427 20,500 1,350 Climbing Miami Center
Mon 07:10:08 PM 26.9667 -80.5717 341° North 376 433 22,000 1,400 Climbing Miami Center
Mon 07:11:08 PM 27.0722 -80.6100 342° North 382 440 23,300 1,200 Climbing Miami Center
Mon 07:12:08 PM 27.1669 -80.6644 333° Northwest 388 447 24,400 1,100 Climbing Miami Center
Mon 07:13:08 PM 27.2186 -80.7642 300° West 365 420 25,500 1,000 Climbing Miami Center
Mon 07:14:08 PM 27.2319 -80.8814 277° West 354 407 26,400 900 Climbing Miami Center
Mon 07:15:08 PM 27.2411 -81.0033 275° West 365 420 27,300 700 Climbing Miami Center
Mon 07:16:08 PM 27.2581 -81.1369 278° West 385 443 27,800 450 Climbing Miami Center
Mon 07:17:08 PM 27.2689 -81.2633 276° West 402 463 28,200 400 Climbing Miami Center
Mon 07:18:08 PM 27.2858 -81.3925 278° West 413 475 28,600 350 Climbing Miami Center
Mon 07:19:08 PM 27.2986 -81.5122 277° West 429 494 28,900 400 Climbing Miami Center
Mon 07:20:08 PM 27.3125 -81.6647 276° West 440 506 29,400 400 Climbing Miami Center
Mon 07:21:08 PM 27.3372 -81.7967 282° West 440 506 29,700 350 Climbing Miami Center
Mon 07:22:08 PM 27.3767 -81.9269 289° West 445 512 30,100 350 Climbing Miami Center
Mon 07:23:08 PM 27.4097 -82.0475 287° West 450 518 30,400 300 Climbing Miami Center
Mon 07:24:08 PM 27.4447 -82.1800 287° West 445 512 30,700 350 Climbing Miami Center
Mon 07:25:08 PM 27.4894 -82.3225 290° West 445 512 31,100 400 Climbing Miami Center
Mon 07:26:08 PM 27.5239 -82.4575 286° West 450 518 31,500 350 Climbing Miami Center
Mon 07:27:08 PM 27.5603 -82.5906 287° West 450 518 31,800 250 Climbing Miami Center
Mon 07:28:08 PM 27.5953 -82.7092 288° West 450 518 32,000 100 Climbing Miami Center
Mon 07:29:08 PM 27.6314 -82.8422 287° West 445 512 32,000  Level Miami Center
Mon 07:30:08 PM 27.6656 -82.9753 286° West 451 519 32,000  Level Miami Center
Mon 07:31:08 PM 27.7017 -83.1061 287° West 446 513 32,000  Level Miami Center
Mon 07:32:08 PM 27.7400 -83.2325 289° West 441 507 32,000  Level Miami Center
Mon 07:33:08 PM 27.7717 -83.3631 285° West 436 502 32,000  Level Miami Center
Mon 07:34:08 PM 27.8078 -83.4872 288° West 430 495 32,000  Level Miami Center
Mon 07:35:08 PM 27.8414 -83.6136 287° West 425 489 32,000  Level Miami Center
Mon 07:36:08 PM 27.8750 -83.7422 286° West 425 489 32,000  Level Miami Center
Mon 07:38:25 PM 27.9592 -84.0486 287° West 439 505 32,000  Level Jacksonville Center
Mon 07:39:25 PM 27.9953 -84.1783 288° West 433 498 32,000  Level Jacksonville Center
Mon 07:40:25 PM 28.0253 -84.3056 285° West 428 493 32,000  Level Jacksonville Center
Mon 07:41:25 PM 28.0614 -84.4331 288° West 428 493 32,000  Level Jacksonville Center
Mon 07:42:25 PM 28.0933 -84.5558 286° West 423 487 32,000  Level Jacksonville Center
Mon 07:43:25 PM 28.1269 -84.6883 286° West 422 486 32,000  Level Jacksonville Center
Mon 07:44:25 PM 28.1586 -84.8042 287° West 422 486 32,000  Level Jacksonville Center
Mon 07:45:25 PM 28.1922 -84.9342 286° West 431 496 32,000  Level Jacksonville Center
Mon 07:46:25 PM 28.2256 -85.0550 287° West 425 489 32,000  Level Jacksonville Center
Mon 07:47:25 PM 28.2567 -85.1925 284° West 420 483 32,000  Level Jacksonville Center
Mon 07:48:25 PM 28.2897 -85.3206 286° West 420 483 32,000  Level Jacksonville Center
Mon 07:49:25 PM 28.3250 -85.4417 288° West 420 483 32,000  Level Jacksonville Center
Mon 07:50:25 PM 28.3556 -85.5744 285° West 425 489 32,000  Level Jacksonville Center
Mon 07:51:25 PM 28.3883 -85.7003 287° West 425 489 32,000  Level Jacksonville Center
Mon 07:52:25 PM 28.4208 -85.8333 286° West 425 489 32,000  Level Jacksonville Center
Mon 07:53:25 PM 28.4514 -85.9594 285° West 420 483 32,000  Level Jacksonville Center
Mon 07:54:25 PM 28.4858 -86.0881 287° West 420 483 32,000  Level Jacksonville Center
Mon 07:55:25 PM 28.5161 -86.2117 286° West 420 483 32,000  Level Jacksonville Center
Mon 07:56:25 PM 28.5483 -86.3381 286° West 425 489 32,000  Level Jacksonville Center
Mon 07:57:25 PM 28.5800 -86.4714 285° West 424 488 32,000  Level Jacksonville Center
Mon 07:58:25 PM 28.6119 -86.5981 286° West 419 482 32,000  Level Jacksonville Center
Mon 07:59:25 PM 28.6456 -86.7269 287° West 419 482 32,000  Level Jacksonville Center
Mon 08:00:25 PM 28.6753 -86.8558 285° West 419 482 32,000  Level Jacksonville Center
Mon 08:01:25 PM 28.7067 -86.9847 286° West 419 482 32,000  Level Jacksonville Center
Mon 08:02:25 PM 28.7358 -87.1114 285° West 419 482 32,000  Level Jacksonville Center
Mon 08:02:57 PM 28.7547 -87.1869 286° West 420 483 32,000  Level Houston Center
Mon 08:03:58 PM 28.7861 -87.3164 285° West 422 486 32,000  Level Houston Center
Mon 08:05:00 PM 28.8167 -87.4444 285° West 420 483 32,000  Level Houston Center
Mon 08:06:02 PM 28.8458 -87.5736 284° West 421 484 32,000  Level Houston Center
Mon 08:07:03 PM 28.8769 -87.7019 286° West 419 482 32,000 49 Level Houston Center
Mon 08:08:05 PM 28.9064 -87.8289 285° West 417 480 32,100 242 Climbing Houston Center
Mon 08:09:07 PM 28.9367 -87.9572 285° West 418 481 32,500 488 Climbing Houston Center
Mon 08:10:08 PM 28.9669 -88.0911 285° West 417 480 33,100 634 Climbing Houston Center
Mon 08:11:10 PM 28.9964 -88.2172 285° West 411 473 33,800 581 Climbing Houston Center
Mon 08:12:12 PM 29.0314 -88.3678 285° West 409 471 34,300 581 Climbing Houston Center
Mon 08:13:14 PM 29.0600 -88.4928 285° West 408 470 35,000 585 Climbing Houston Center
Mon 08:14:15 PM 29.0875 -88.6161 284° West 402 463 35,500 488 Climbing Houston Center
Mon 08:15:17 PM 29.1150 -88.7392 284° West 399 459 36,000 242 Climbing Houston Center
Mon 08:16:19 PM 29.1428 -88.8611 285° West 398 458 36,000  Level Houston Center
Mon 08:17:20 PM 29.1706 -88.9858 284° West 403 464 36,000  Level Houston Center
Mon 08:18:22 PM 29.1986 -89.1125 284° West 408 470 36,000  Level Houston Center
Mon 08:19:24 PM 29.2331 -89.2633 285° West 408 470 36,000  Level Houston Center
Mon 08:20:25 PM 29.2600 -89.3900 284° West 409 471 36,000  Level Houston Center
Mon 08:21:27 PM 29.2881 -89.5172 284° West 411 473 36,000  Level Houston Center
Mon 08:22:29 PM 29.3156 -89.6447 284° West 411 473 36,000  Level Houston Center
Mon 08:23:31 PM 29.3436 -89.7725 284° West 413 475 36,000  Level Houston Center
Mon 08:24:33 PM 29.3708 -89.8983 284° West 409 471 36,000  Level Houston Center
Mon 08:25:34 PM 29.3981 -90.0242 284° West 406 467 36,000  Level Houston Center
Mon 08:26:36 PM 29.4253 -90.1506 284° West 407 468 36,000  Level Houston Center
Mon 08:27:38 PM 29.4567 -90.2986 284° West 398 458 36,000  Level Houston Center
Mon 08:28:40 PM 29.4836 -90.4219 284° West 397 457 36,000  Level Houston Center
Mon 08:29:42 PM 29.5089 -90.5431 284° West 392 451 36,000  Level Houston Center
Mon 08:30:43 PM 29.5344 -90.6642 284° West 391 450 36,000  Level Houston Center
Mon 08:31:45 PM 29.5600 -90.7861 284° West 392 451 36,000  Level Houston Center
Mon 08:32:47 PM 29.5858 -90.9075 284° West 391 450 36,000  Level Houston Center
Mon 08:33:49 PM 29.6103 -91.0297 283° West 393 452 36,000  Level Houston Center
Mon 08:34:51 PM 29.6411 -91.1753 284° West 392 451 36,000  Level Houston Center
Mon 08:35:52 PM 29.6661 -91.2972 283° West 393 452 36,000  Level Houston Center
Mon 08:36:54 PM 29.6911 -91.4197 283° West 394 453 36,000  Level Houston Center
Mon 08:37:56 PM 29.7172 -91.5419 284° West 395 455 36,000  Level Houston Center
Mon 08:38:58 PM 29.7403 -91.6639 282° West 393 452 36,000  Level Houston Center
Mon 08:40:00 PM 29.7667 -91.7944 283° West 391 450 36,000  Level Houston Center
Mon 08:41:01 PM 29.7908 -91.9167 283° West 391 450 36,000  Level Houston Center
Mon 08:42:03 PM 29.8147 -92.0378 283° West 390 449 36,000  Level Houston Center
Mon 08:43:05 PM 29.8394 -92.1597 283° West 391 450 36,000  Level Houston Center
Mon 08:44:07 PM 29.8625 -92.2797 283° West 387 445 36,000  Level Houston Center
Mon 08:45:08 PM 29.8911 -92.4244 283° West 386 444 36,000  Level Houston Center
Mon 08:46:10 PM 29.9153 -92.5453 283° West 387 445 36,000  Level Houston Center
Mon 08:47:12 PM 29.9386 -92.6661 283° West 386 444 36,000  Level Houston Center
Mon 08:48:14 PM 29.9619 -92.7867 283° West 385 443 36,000  Level Houston Center
Mon 08:49:15 PM 29.9850 -92.9069 283° West 385 443 36,000 49 Level Houston Center
Mon 08:50:17 PM 30.0083 -93.0278 283° West 386 444 36,100 290 Climbing Houston Center
Mon 08:51:19 PM 30.0308 -93.1472 282° West 382 440 36,600 488 Climbing Houston Center
Mon 08:52:20 PM 30.0575 -93.2908 282° West 381 438 37,100 341 Climbing Houston Center
Mon 08:53:22 PM 30.0808 -93.4125 283° West 384 442 37,300 290 Climbing Houston Center
Mon 08:54:24 PM 30.1028 -93.5342 282° West 385 443 37,700 339 Climbing Houston Center
Mon 08:55:26 PM 30.1250 -93.6564 282° West 385 443 38,000 146 Climbing Houston Center
Mon 08:56:27 PM 30.1483 -93.7778 283° West 385 443 38,000  Level Houston Center
Mon 08:57:29 PM 30.1706 -93.9003 282° West 387 445 38,000  Level Houston Center
Mon 08:58:31 PM 30.1942 -94.0206 283° West 386 444 38,000  Level Houston Center
Mon 08:59:32 PM 30.2150 -94.1406 281° West 382 440 38,000  Level Houston Center
Mon 09:00:34 PM 30.2372 -94.2572 282° West 376 433 38,000  Level Houston Center
Mon 09:01:36 PM 30.2581 -94.3753 282° West 377 434 38,000  Level Houston Center
Mon 09:02:37 PM 30.2825 -94.5153 281° West 371 427 38,000  Level Houston Center
Mon 09:03:39 PM 30.3033 -94.6258 282° West 360 414 38,000 194 Level Houston Center
Mon 09:04:41 PM 30.3231 -94.7400 281° West 362 417 38,400 390 Climbing Houston Center
Mon 09:05:42 PM 30.3439 -94.8544 282° West 364 419 38,800 390 Climbing Houston Center
Mon 09:06:44 PM 30.3628 -94.9664 281° West 359 413 39,200 390 Climbing Houston Center
Mon 09:07:45 PM 30.3819 -95.0778 281° West 355 409 39,600 390 Climbing Houston Center
Mon 09:08:47 PM 30.4011 -95.1861 282° West 349 402 40,000 194 Climbing Houston Center
Mon 09:09:49 PM 30.4250 -95.3186 282° West 350 403 40,000  Level Houston Center
Mon 09:10:50 PM 30.4431 -95.4292 281° West 352 405 40,000  Level Houston Center
Mon 09:11:52 PM 30.4625 -95.5394 282° West 350 403 40,000  Level Houston Center
Mon 09:12:53 PM 30.4808 -95.6514 281° West 354 407 40,000  Level Houston Center
Mon 09:13:55 PM 30.5006 -95.7633 282° West 356 410 40,000  Level Houston Center
Mon 09:14:56 PM 30.5189 -95.8750 281° West 355 409 40,000  Level Houston Center
Mon 09:15:58 PM 30.5378 -95.9867 281° West 354 407 40,000  Level Houston Center
Mon 09:16:59 PM 30.5550 -96.1064 280° West 353 406 40,000  Level Houston Center
Mon 09:18:00 PM 30.5747 -96.2192 282° West 353 406 40,000  Level Houston Center
Mon 09:19:02 PM 30.5964 -96.3528 281° West 356 410 40,000  Level Houston Center
Mon 09:20:03 PM 30.6150 -96.4669 281° West 357 411 40,000  Level Houston Center
Mon 09:21:05 PM 30.6333 -96.5831 280° West 361 415 40,000  Level Houston Center
Mon 09:22:06 PM 30.6522 -96.6983 281° West 360 414 40,000  Level Houston Center
Mon 09:23:08 PM 30.6706 -96.8142 280° West 361 415 40,000  Level Houston Center
Mon 09:24:09 PM 30.6886 -96.9292 280° West 359 413 40,000  Level Houston Center
Mon 09:25:10 PM 30.7075 -97.0467 281° West 365 420 40,000  Level Houston Center
Mon 09:26:12 PM 30.7244 -97.1642 280° West 364 419 40,000  Level Houston Center
Mon 09:27:13 PM 30.7419 -97.2844 280° West 367 422 40,000  Level Houston Center
Mon 09:28:14 PM 30.7608 -97.4072 280° West 376 433 40,000  Level Houston Center
Mon 09:29:15 PM 30.7806 -97.5292 281° West 376 433 40,000  Level Houston Center
Mon 09:30:17 PM 30.8006 -97.6514 281° West 379 436 40,000  Level Houston Center
Mon 09:31:18 PM 30.8186 -97.7747 280° West 382 440 40,000  Level Houston Center
Mon 09:32:19 PM 30.8386 -97.8978 281° West 383 441 40,000  Level Houston Center
Mon 09:33:20 PM 30.8600 -98.0219 281° West 386 444 40,000  Level Houston Center
Mon 09:34:22 PM 30.8806 -98.1472 281° West 389 448 40,000  Level Houston Center
Mon 09:35:23 PM 30.9019 -98.2728 281° West 391 450 40,000  Level Houston Center
Mon 09:36:24 PM 30.9214 -98.3981 280° West 390 449 40,000  Level Houston Center
Mon 09:37:25 PM 30.9439 -98.5233 282° West 393 452 40,000  Level Houston Center
Mon 09:38:26 PM 30.9628 -98.6492 280° West 392 451 40,000  Level Houston Center
Mon 09:39:27 PM 30.9836 -98.7747 281° West 391 450 40,000  Level Houston Center
Mon 09:40:28 PM 31.0017 -98.8997 280° West 389 448 40,000  Level Houston Center
Mon 09:41:29 PM 31.0225 -99.0242 281° West 388 447 40,000  Level Houston Center
Mon 09:42:30 PM 31.0419 -99.1500 280° West 390 449 40,000  Level Houston Center
Mon 09:43:31 PM 31.0622 -99.2747 281° West 390 449 40,000  Level Houston Center
Mon 09:44:35 PM 31.0811 -99.3989 280° West 390 449 40,000  Level Houston Center
Mon 09:45:34 PM 31.1050 -99.5481 281° West 391 450 40,000  Level Houston Center
Mon 09:46:35 PM 31.1236 -99.6722 280° West 390 449 40,000  Level Houston Center
Mon 09:47:36 PM 31.1428 -99.7956 280° West 390 449 40,000  Level Houston Center
Mon 09:48:36 PM 31.1617 -99.9192 280° West 389 448 40,000  Level Houston Center
Mon 09:49:37 PM 31.1792 -100.0439 279° West 390 449 40,000  Level Houston Center
Mon 09:50:38 PM 31.1986 -100.1683 280° West 392 451 40,000  Level Houston Center
Mon 09:51:39 PM 31.2158 -100.2931 279° West 392 451 40,000  Level Houston Center
Mon 09:52:40 PM 31.2344 -100.4189 280° West 394 453 40,000  Level Houston Center
Mon 09:53:41 PM 31.2536 -100.5444 280° West 394 453 40,000  Level Houston Center
Mon 09:54:42 PM 31.2706 -100.6722 279° West 399 459 40,000  Level Houston Center
Mon 09:55:43 PM 31.2894 -100.8000 280° West 400 460 40,000  Level Houston Center
Mon 09:56:44 PM 31.3122 -100.9547 280° West 404 465 40,000  Level Houston Center
Mon 09:57:45 PM 31.3289 -101.0719 279° West 408 470 40,000  Level Houston Center
Mon 09:58:46 PM 31.3461 -101.2044 279° West 411 473 40,000  Level Houston Center
Mon 10:00:35 PM 31.3822 -101.4525 280° West 414 476 40,000  Level Fort Worth Center
Mon 10:01:35 PM 31.4008 -101.5894 279° West 419 482 40,000  Level Fort Worth Center
Mon 10:02:35 PM 31.4211 -101.7244 280° West 426 490 40,000  Level Fort Worth Center
Mon 10:04:43 PM 31.4583 -102.0314 278° West 443 510 40,000  Level Albuquerque Center
Mon 10:05:45 PM 31.4769 -102.1697 279° West 434 499 40,000  Level Albuquerque Center
Mon 10:06:46 PM 31.4958 -102.3089 279° West 432 497 40,000  Level Albuquerque Center
Mon 10:07:47 PM 31.5139 -102.4492 279° West 434 499 40,000  Level Albuquerque Center
Mon 10:08:48 PM 31.5339 -102.5997 279° West 434 499 40,000  Level Albuquerque Center
Mon 10:09:49 PM 31.5503 -102.7386 278° West 434 499 40,000  Level Albuquerque Center
Mon 10:10:51 PM 31.5681 -102.8778 279° West 434 499 40,000  Level Albuquerque Center
Mon 10:11:52 PM 31.5858 -103.0181 278° West 436 502 40,000  Level Albuquerque Center
Mon 10:12:53 PM 31.6022 -103.1578 278° West 436 502 40,000  Level Albuquerque Center
Mon 10:13:54 PM 31.6200 -103.2997 278° West 439 505 40,000  Level Albuquerque Center
Mon 10:14:55 PM 31.6394 -103.4625 278° West 438 504 40,000  Level Albuquerque Center
Mon 10:15:57 PM 31.6564 -103.6031 278° West 437 503 40,000  Level Albuquerque Center
Mon 10:16:58 PM 31.6739 -103.7444 278° West 437 503 40,000  Level Albuquerque Center
Mon 10:17:59 PM 31.6922 -103.8903 278° West 438 504 40,000  Level Albuquerque Center
Mon 10:19:00 PM 31.7081 -104.0272 278° West 435 501 40,000  Level Albuquerque Center
Mon 10:20:01 PM 31.7242 -104.1692 278° West 439 505 40,000  Level Albuquerque Center
Mon 10:21:03 PM 31.7414 -104.3094 278° West 438 504 40,000  Level Albuquerque Center
Mon 10:22:04 PM 31.7575 -104.4508 278° West 439 505 40,000  Level Albuquerque Center
Mon 10:23:05 PM 31.7731 -104.5900 278° West 436 502 40,000  Level Albuquerque Center
Mon 10:24:06 PM 31.7894 -104.7308 278° West 437 503 40,000  Level Albuquerque Center
Mon 10:25:07 PM 31.8081 -104.8997 277° West 437 503 40,000  Level Albuquerque Center
Mon 10:26:09 PM 31.8236 -105.0386 278° West 434 499 40,000  Level Albuquerque Center
Mon 10:27:10 PM 31.8386 -105.1764 277° West 430 495 40,000  Level Albuquerque Center
Mon 10:28:11 PM 31.8531 -105.3147 277° West 429 494 40,000  Level Albuquerque Center
Mon 10:29:12 PM 31.8681 -105.4539 277° West 430 495 40,000  Level Albuquerque Center
Mon 10:30:13 PM 31.8822 -105.5914 277° West 427 491 40,000  Level Albuquerque Center
Mon 10:31:15 PM 31.8969 -105.7294 277° West 426 490 40,000  Level Albuquerque Center
Mon 10:32:16 PM 31.9106 -105.8678 277° West 428 493 40,000  Level Albuquerque Center
Mon 10:33:17 PM 31.9278 -106.0306 277° West 430 495 40,000  Level Albuquerque Center
Mon 10:34:18 PM 31.9422 -106.1697 277° West 429 494 40,000  Level Albuquerque Center
Mon 10:35:19 PM 31.9572 -106.3089 277° West 429 494 40,000  Level Albuquerque Center
Mon 10:36:20 PM 31.9731 -106.4500 278° West 434 499 40,000  Level Albuquerque Center
Mon 10:37:22 PM 31.9883 -106.5892 277° West 430 495 40,000  Level Albuquerque Center
Mon 10:38:23 PM 32.0053 -106.7289 278° West 430 495 40,000  Level Albuquerque Center
Mon 10:39:24 PM 32.0225 -106.8706 278° West 434 499 40,000  Level Albuquerque Center
Mon 10:40:25 PM 32.0375 -107.0114 277° West 433 498 40,000  Level Albuquerque Center
Mon 10:41:26 PM 32.0531 -107.1533 277° West 433 498 40,000  Level Albuquerque Center
Mon 10:42:27 PM 32.0683 -107.2936 277° West 431 496 40,000  Level Albuquerque Center
Mon 10:43:29 PM 32.0825 -107.4347 277° West 430 495 40,000  Level Albuquerque Center
Mon 10:44:30 PM 32.0836 -107.5764 271° West 436 502 40,000  Level Albuquerque Center
Mon 10:45:31 PM 32.0711 -107.7178 264° West 434 499 40,000  Level Albuquerque Center
Mon 10:46:32 PM 32.0550 -107.8864 264° West 433 498 40,000  Level Albuquerque Center
Mon 10:47:33 PM 32.0408 -108.0286 263° West 435 501 40,000  Level Albuquerque Center
Mon 10:48:35 PM 32.0269 -108.1708 263° West 436 502 40,000  Level Albuquerque Center
Mon 10:49:36 PM 32.0150 -108.3117 264° West 434 499 40,000 -98 Level Albuquerque Center
Mon 10:50:37 PM 32.0522 -108.4486 288° West 434 499 39,800 -541 Descending Albuquerque Center
Mon 10:51:38 PM 32.0858 -108.5778 287° West 436 502 38,900 -836 Descending Albuquerque Center
Mon 10:52:39 PM 32.1222 -108.7181 287° West 443 510 38,100 -689 Descending Albuquerque Center
Mon 10:53:40 PM 32.1567 -108.8586 286° West 445 512 37,500 -541 Descending Albuquerque Center
Mon 10:54:41 PM 32.2003 -109.0272 287° West 447 514 37,000 -488 Descending Albuquerque Center
Mon 10:55:43 PM 32.2356 -109.1678 287° West 445 512 36,500 -390 Descending Albuquerque Center
Mon 10:56:44 PM 32.2706 -109.3069 287° West 444 511 36,200 -246 Descending Albuquerque Center
Mon 10:57:45 PM 32.3053 -109.4456 287° West 441 507 36,000 -885 Descending Albuquerque Center
Mon 10:58:46 PM 32.3397 -109.5858 286° West 442 509 34,400 -1,623 Descending Albuquerque Center
Mon 10:59:47 PM 32.3764 -109.7306 287° West 453 521 32,700 -1,721 Descending Albuquerque Center
Mon 11:00:48 PM 32.4136 -109.8775 287° West 463 533 30,900 -1,707 Descending Albuquerque Center
Mon 11:01:50 PM 32.4483 -110.0219 286° West 459 528 29,200 -1,707 Descending Albuquerque Center
Mon 11:02:51 PM 32.4836 -110.1636 286° West 451 519 27,400 -1,770 Descending Albuquerque Center
Mon 11:03:52 PM 32.5189 -110.3058 286° West 450 518 25,600 -1,672 Descending Albuquerque Center
Mon 11:04:53 PM 32.5531 -110.4522 286° West 442 509 24,000 -787 Descending Albuquerque Center
Mon 11:05:54 PM 32.5853 -110.5819 286° West 421 484 24,000 -829 Level Albuquerque Center
Mon 11:06:56 PM 32.6397 -110.6892 301° West 388 447 22,300 -2,000 Descending Albuquerque Center
Mon 11:07:57 PM 32.6967 -110.7936 303° West 381 438 19,900 -2,410 Descending Albuquerque Center
Mon 11:08:58 PM 32.7547 -110.8992 303° West 380 437 17,400 -2,016 Descending Albuquerque Center
Mon 11:09:59 PM 32.8186 -111.0233 302° West 369 425 15,800 -1,122 Descending Albuquerque Center
Mon 11:11:01 PM 32.8639 -111.1103 302° West 322 371 15,100 -537 Descending Albuquerque Center
Mon 11:12:02 PM 32.9047 -111.1925 301° West 297 342 14,700 -492 Descending Albuquerque Center
Mon 11:13:03 PM 32.9444 -111.2758 300° West 290 334 14,100 -787 Descending Albuquerque Center
Mon 11:14:04 PM 32.9864 -111.3672 299° West 310 357 13,100 -976 Descending Albuquerque Center
Mon 11:15:06 PM 33.0281 -111.4556 299° West 308 354 12,100 -1,024 Descending Albuquerque Center
Mon 11:16:07 PM 33.0733 -111.5422 302° West 305 351 11,000 -1,033 Descending Albuquerque Center
Mon 11:17:08 PM 33.1403 -111.5958 326° Northwest 294 338 10,000 -1,033 Descending Albuquerque Center
Mon 11:18:09 PM 33.2056 -111.6317 335° Northwest 263 303 8,900 -1,024 Descending Albuquerque Center
Mon 11:19:11 PM 33.2689 -111.6678 335° Northwest 252 290 7,900 -1,073 Descending Albuquerque Center
Mon 11:20:12 PM 33.3314 -111.7042 334° Northwest 250 288 6,700 -1,574 Descending Albuquerque Center
Mon 11:21:13 PM 33.3889 -111.7717 316° Northwest 247 284 4,700 -1,721 Descending Albuquerque Center
Mon 11:22:14 PM 33.4211 -111.8367 301° West 229 264 3,200 -962 Descending Albuquerque Center
Mon 11:22:59 PM 33.4333 -111.8833 287° West 192 221 3,000 -571 Descending Phoenix TRACON
Mon 11:23:59 PM 33.4333 -111.9333 270° West 139 160 2,200 -709 Descending Phoenix TRACON
Mon 11:25:06 PM 33.4333 -111.9833 270° West 124 143 1,500 -627 Descending Phoenix TRACON
Mon 11:27:00 PM 33.4333 -112.0000 280° West  Level FlightAware Approximate

Login

Don't have an account? Register now (free) for customized features, flight alerts, and more!